sensor_id;sensor_type;location;lat;lon;timestamp;temperature;humidity
24664;DHT22;12791;50.992;13.788;2022-12-07T04:04:44;4.10;99.90
24664;DHT22;12791;50.992;13.788;2022-12-07T04:07:11;4.00;99.90
24664;DHT22;12791;50.992;13.788;2022-12-07T04:09:38;4.00;99.90
24664;DHT22;12791;50.992;13.788;2022-12-07T04:12:05;3.80;99.90
24664;DHT22;12791;50.992;13.788;2022-12-07T04:14:32;4.00;99.90
24664;DHT22;12791;50.992;13.788;2022-12-07T04:16:59;4.10;99.90
24664;DHT22;12791;50.992;13.788;2022-12-07T04:19:27;4.00;99.90
24664;DHT22;12791;50.992;13.788;2022-12-07T04:21:56;4.00;99.90
24664;DHT22;12791;50.992;13.788;2022-12-07T04:24:23;3.90;99.90
24664;DHT22;12791;50.992;13.788;2022-12-07T04:26:50;4.00;99.90
24664;DHT22;12791;50.992;13.788;2022-12-07T04:29:17;4.00;99.90
24664;DHT22;12791;50.992;13.788;2022-12-07T04:31:45;4.00;99.90
24664;DHT22;12791;50.992;13.788;2022-12-07T04:34:12;3.80;99.90
24664;DHT22;12791;50.992;13.788;2022-12-07T04:36:39;3.90;99.90
24664;DHT22;12791;50.992;13.788;2022-12-07T04:39:18;3.90;99.90
24664;DHT22;12791;50.992;13.788;2022-12-07T04:41:45;3.60;99.90
24664;DHT22;12791;50.992;13.788;2022-12-07T04:44:13;3.90;99.90
24664;DHT22;12791;50.992;13.788;2022-12-07T04:46:40;4.00;99.90
24664;DHT22;12791;50.992;13.788;2022-12-07T04:49:07;3.90;99.90
24664;DHT22;12791;50.992;13.788;2022-12-07T04:51:35;3.80;99.90
24664;DHT22;12791;50.992;13.788;2022-12-07T04:54:01;3.80;99.90
24664;DHT22;12791;50.992;13.788;2022-12-07T04:56:30;4.00;99.90
24664;DHT22;12791;50.992;13.788;2022-12-07T04:58:57;3.80;99.90
24664;DHT22;12791;50.992;13.788;2022-12-07T05:01:24;3.90;99.90
24664;DHT22;12791;50.992;13.788;2022-12-07T05:03:51;3.90;99.90
24664;DHT22;12791;50.992;13.788;2022-12-07T05:06:18;3.80;99.90
24664;DHT22;12791;50.992;13.788;2022-12-07T05:08:45;3.90;99.90
24664;DHT22;12791;50.992;13.788;2022-12-07T05:11:12;3.90;99.90
24664;DHT22;12791;50.992;13.788;2022-12-07T05:14:03;3.60;99.90
24664;DHT22;12791;50.992;13.788;2022-12-07T05:16:30;3.50;99.90
24664;DHT22;12791;50.992;13.788;2022-12-07T05:18:57;3.80;99.90
24664;DHT22;12791;50.992;13.788;2022-12-07T05:21:24;3.80;99.90
24664;DHT22;12791;50.992;13.788;2022-12-07T05:23:51;3.90;99.90
24664;DHT22;12791;50.992;13.788;2022-12-07T05:26:18;3.60;99.90
24664;DHT22;12791;50.992;13.788;2022-12-07T05:28:44;3.80;99.90
24664;DHT22;12791;50.992;13.788;2022-12-07T05:31:12;3.60;99.90
24664;DHT22;12791;50.992;13.788;2022-12-07T05:33:39;3.70;99.90
24664;DHT22;12791;50.992;13.788;2022-12-07T05:36:06;3.60;99.90
24664;DHT22;12791;50.992;13.788;2022-12-07T05:38:33;3.50;99.90
24664;DHT22;12791;50.992;13.788;2022-12-07T05:41:01;3.70;99.90
24664;DHT22;12791;50.992;13.788;2022-12-07T05:43:28;3.60;99.90
24664;DHT22;12791;50.992;13.788;2022-12-07T05:45:55;3.60;99.90
24664;DHT22;12791;50.992;13.788;2022-12-07T05:48:24;3.80;99.90
24664;DHT22;12791;50.992;13.788;2022-12-07T05:50:52;3.50;99.90
24664;DHT22;12791;50.992;13.788;2022-12-07T05:53:19;3.70;99.90
24664;DHT22;12791;50.992;13.788;2022-12-07T05:55:46;3.80;99.90
24664;DHT22;12791;50.992;13.788;2022-12-07T05:58:13;3.70;99.90
24664;DHT22;12791;50.992;13.788;2022-12-07T06:00:57;3.90;99.90
24664;DHT22;12791;50.992;13.788;2022-12-07T06:03:25;3.80;99.90
24664;DHT22;12791;50.992;13.788;2022-12-07T06:05:52;3.90;99.90
24664;DHT22;12791;50.992;13.788;2022-12-07T06:08:18;3.90;99.90
24664;DHT22;12791;50.992;13.788;2022-12-07T06:10:47;4.00;99.90
24664;DHT22;12791;50.992;13.788;2022-12-07T06:13:34;4.00;99.90
24664;DHT22;12791;50.992;13.788;2022-12-07T06:16:00;4.00;99.90
24664;DHT22;12791;50.992;13.788;2022-12-07T06:18:28;3.90;99.90
24664;DHT22;12791;50.992;13.788;2022-12-07T06:20:55;3.80;99.90
24664;DHT22;12791;50.992;13.788;2022-12-07T06:23:21;4.00;99.90
24664;DHT22;12791;50.992;13.788;2022-12-07T06:25:48;3.50;99.90
24664;DHT22;12791;50.992;13.788;2022-12-07T06:28:15;4.10;99.90
24664;DHT22;12791;50.992;13.788;2022-12-07T06:30:42;3.90;99.90
24664;DHT22;12791;50.992;13.788;2022-12-07T06:33:08;3.90;99.90
24664;DHT22;12791;50.992;13.788;2022-12-07T06:35:37;3.80;99.90
24664;DHT22;12791;50.992;13.788;2022-12-07T06:38:03;4.00;99.90
24664;DHT22;12791;50.992;13.788;2022-12-07T06:40:30;4.10;99.90
24664;DHT22;12791;50.992;13.788;2022-12-07T06:42:57;3.80;99.90
24664;DHT22;12791;50.992;13.788;2022-12-07T06:45:23;4.10;99.90
24664;DHT22;12791;50.992;13.788;2022-12-07T06:47:50;4.00;99.90
24664;DHT22;12791;50.992;13.788;2022-12-07T06:50:17;4.00;99.90
24664;DHT22;12791;50.992;13.788;2022-12-07T06:52:45;4.10;99.90
24664;DHT22;12791;50.992;13.788;2022-12-07T06:55:12;3.90;99.90
24664;DHT22;12791;50.992;13.788;2022-12-07T06:57:39;4.00;99.90
24664;DHT22;12791;50.992;13.788;2022-12-07T07:00:06;4.20;99.90
24664;DHT22;12791;50.992;13.788;2022-12-07T07:02:33;3.90;99.90
24664;DHT22;12791;50.992;13.788;2022-12-07T07:05:00;4.10;99.90
24664;DHT22;12791;50.992;13.788;2022-12-07T07:07:27;3.90;99.90
24664;DHT22;12791;50.992;13.788;2022-12-07T07:09:55;4.30;99.90
24664;DHT22;12791;50.992;13.788;2022-12-07T07:12:22;4.20;99.90
24664;DHT22;12791;50.992;13.788;2022-12-07T07:14:49;4.10;99.90
24664;DHT22;12791;50.992;13.788;2022-12-07T07:17:16;4.10;99.90
24664;DHT22;12791;50.992;13.788;2022-12-07T07:19:42;4.20;99.90
24664;DHT22;12791;50.992;13.788;2022-12-07T07:22:09;4.10;99.90
24664;DHT22;12791;50.992;13.788;2022-12-07T07:24:36;4.00;99.90
24664;DHT22;12791;50.992;13.788;2022-12-07T07:27:04;4.10;99.90
24664;DHT22;12791;50.992;13.788;2022-12-07T07:29:31;4.20;99.90
24664;DHT22;12791;50.992;13.788;2022-12-07T07:31:57;4.00;99.90
24664;DHT22;12791;50.992;13.788;2022-12-07T07:34:24;4.20;99.90
24664;DHT22;12791;50.992;13.788;2022-12-07T07:36:51;4.00;99.90
24664;DHT22;12791;50.992;13.788;2022-12-07T07:39:18;3.90;99.90
24664;DHT22;12791;50.992;13.788;2022-12-07T07:41:44;3.80;99.90
24664;DHT22;12791;50.992;13.788;2022-12-07T07:44:13;4.00;99.90
24664;DHT22;12791;50.992;13.788;2022-12-07T07:46:40;4.00;99.90
24664;DHT22;12791;50.992;13.788;2022-12-07T07:49:06;3.90;99.90
24664;DHT22;12791;50.992;13.788;2022-12-07T07:51:33;3.90;99.90
24664;DHT22;12791;50.992;13.788;2022-12-07T07:54:00;4.00;99.90
24664;DHT22;12791;50.992;13.788;2022-12-07T07:56:27;3.80;99.90
24664;DHT22;12791;50.992;13.788;2022-12-07T07:58:54;4.00;99.90
24664;DHT22;12791;50.992;13.788;2022-12-07T08:01:22;3.90;99.90
24664;DHT22;12791;50.992;13.788;2022-12-07T08:03:49;4.00;99.90
24664;DHT22;12791;50.992;13.788;2022-12-07T08:06:16;4.00;99.90
24664;DHT22;12791;50.992;13.788;2022-12-07T08:08:43;4.00;99.90
24664;DHT22;12791;50.992;13.788;2022-12-07T08:11:10;4.10;99.90
24664;DHT22;12791;50.992;13.788;2022-12-07T08:13:37;4.00;99.90
24664;DHT22;12791;50.992;13.788;2022-12-07T08:16:04;4.00;99.90
24664;DHT22;12791;50.992;13.788;2022-12-07T08:18:34;3.90;99.90
24664;DHT22;12791;50.992;13.788;2022-12-07T08:21:02;4.20;99.90
24664;DHT22;12791;50.992;13.788;2022-12-07T08:23:29;4.10;99.90
24664;DHT22;12791;50.992;13.788;2022-12-07T08:26:00;4.10;99.90
24664;DHT22;12791;50.992;13.788;2022-12-07T08:28:27;4.20;99.90
24664;DHT22;12791;50.992;13.788;2022-12-07T08:30:58;4.20;99.90
24664;DHT22;12791;50.992;13.788;2022-12-07T08:33:25;4.20;99.90
24664;DHT22;12791;50.992;13.788;2022-12-07T08:35:53;4.20;99.90
24664;DHT22;12791;50.992;13.788;2022-12-07T08:38:20;4.40;99.90
24664;DHT22;12791;50.992;13.788;2022-12-07T08:40:53;4.20;99.90
24664;DHT22;12791;50.992;13.788;2022-12-07T08:43:20;4.50;99.90
24664;DHT22;12791;50.992;13.788;2022-12-07T08:45:48;4.50;99.90
24664;DHT22;12791;50.992;13.788;2022-12-07T08:48:17;4.30;99.90
24664;DHT22;12791;50.992;13.788;2022-12-07T08:50:47;4.30;99.90
24664;DHT22;12791;50.992;13.788;2022-12-07T08:53:16;4.50;99.90
24664;DHT22;12791;50.992;13.788;2022-12-07T08:55:43;4.50;99.90
24664;DHT22;12791;50.992;13.788;2022-12-07T08:58:10;4.40;99.90
24664;DHT22;12791;50.992;13.788;2022-12-07T09:00:37;4.40;99.90
24664;DHT22;12791;50.992;13.788;2022-12-07T09:03:04;3.90;99.90
24664;DHT22;12791;50.992;13.788;2022-12-07T09:05:32;4.50;99.90
24664;DHT22;12791;50.992;13.788;2022-12-07T09:08:00;4.70;99.90
24664;DHT22;12791;50.992;13.788;2022-12-07T09:10:29;4.50;99.90
24664;DHT22;12791;50.992;13.788;2022-12-07T09:12:56;4.70;99.90
24664;DHT22;12791;50.992;13.788;2022-12-07T09:15:26;4.70;99.90
24664;DHT22;12791;50.992;13.788;2022-12-07T09:17:53;4.50;99.90
24664;DHT22;12791;50.992;13.788;2022-12-07T09:20:19;4.50;99.90
24664;DHT22;12791;50.992;13.788;2022-12-07T09:22:46;4.60;99.90
24664;DHT22;12791;50.992;13.788;2022-12-07T09:25:13;4.70;99.90
24664;DHT22;12791;50.992;13.788;2022-12-07T09:27:41;4.90;99.90
24664;DHT22;12791;50.992;13.788;2022-12-07T09:30:08;4.90;99.90
24664;DHT22;12791;50.992;13.788;2022-12-07T09:32:35;4.80;99.90
24664;DHT22;12791;50.992;13.788;2022-12-07T09:35:02;5.00;99.90
24664;DHT22;12791;50.992;13.788;2022-12-07T09:37:29;5.00;99.90
24664;DHT22;12791;50.992;13.788;2022-12-07T09:39:57;4.90;99.90
24664;DHT22;12791;50.992;13.788;2022-12-07T09:42:28;5.00;99.90
24664;DHT22;12791;50.992;13.788;2022-12-07T09:44:58;4.50;99.90
24664;DHT22;12791;50.992;13.788;2022-12-07T09:47:25;5.10;99.90
24664;DHT22;12791;50.992;13.788;2022-12-07T09:49:54;5.10;99.90
24664;DHT22;12791;50.992;13.788;2022-12-07T09:52:27;5.00;99.90
24664;DHT22;12791;50.992;13.788;2022-12-07T09:54:55;5.00;99.90
24664;DHT22;12791;50.992;13.788;2022-12-07T09:57:27;4.90;99.90
24664;DHT22;12791;50.992;13.788;2022-12-07T09:59:58;5.10;99.90
24664;DHT22;12791;50.992;13.788;2022-12-07T10:02:34;5.00;99.90
24664;DHT22;12791;50.992;13.788;2022-12-07T10:05:04;4.90;99.90
24664;DHT22;12791;50.992;13.788;2022-12-07T10:07:31;5.00;99.90
24664;DHT22;12791;50.992;13.788;2022-12-07T10:09:58;5.10;99.90
24664;DHT22;12791;50.992;13.788;2022-12-07T10:12:24;5.20;99.90
24664;DHT22;12791;50.992;13.788;2022-12-07T10:14:58;5.00;99.90
24664;DHT22;12791;50.992;13.788;2022-12-07T10:17:32;5.00;99.90
24664;DHT22;12791;50.992;13.788;2022-12-07T10:20:21;5.10;99.90
24664;DHT22;12791;50.992;13.788;2022-12-07T10:23:00;5.10;99.90
24664;DHT22;12791;50.992;13.788;2022-12-07T10:25:30;5.20;99.90
24664;DHT22;12791;50.992;13.788;2022-12-07T10:28:10;5.10;99.90
24664;DHT22;12791;50.992;13.788;2022-12-07T10:30:52;5.40;99.90
24664;DHT22;12791;50.992;13.788;2022-12-07T10:33:31;5.20;99.90
24664;DHT22;12791;50.992;13.788;2022-12-07T10:35:58;5.30;99.90
24664;DHT22;12791;50.992;13.788;2022-12-07T10:38:26;5.30;99.90
24664;DHT22;12791;50.992;13.788;2022-12-07T10:41:04;5.60;99.90
24664;DHT22;12791;50.992;13.788;2022-12-07T10:43:31;5.40;99.90
24664;DHT22;12791;50.992;13.788;2022-12-07T10:46:24;5.60;99.90
24664;DHT22;12791;50.992;13.788;2022-12-07T10:49:01;5.60;99.90
24664;DHT22;12791;50.992;13.788;2022-12-07T10:51:37;5.50;99.90
24664;DHT22;12791;50.992;13.788;2022-12-07T10:54:12;5.20;99.90
24664;DHT22;12791;50.992;13.788;2022-12-07T10:57:00;5.70;99.90
24664;DHT22;12791;50.992;13.788;2022-12-07T10:59:42;5.50;99.90
24664;DHT22;12791;50.992;13.788;2022-12-07T11:02:24;5.30;99.90
24664;DHT22;12791;50.992;13.788;2022-12-07T11:05:11;5.60;99.90
24664;DHT22;12791;50.992;13.788;2022-12-07T11:07:47;5.40;99.90
24664;DHT22;12791;50.992;13.788;2022-12-07T11:10:22;5.40;99.90
24664;DHT22;12791;50.992;13.788;2022-12-07T11:13:08;5.50;99.90
24664;DHT22;12791;50.992;13.788;2022-12-07T11:15:50;5.60;99.90
24664;DHT22;12791;50.992;13.788;2022-12-07T11:18:26;5.20;99.90
24664;DHT22;12791;50.992;13.788;2022-12-07T11:20:58;5.80;99.90
24664;DHT22;12791;50.992;13.788;2022-12-07T11:23:49;5.70;99.90
24664;DHT22;12791;50.992;13.788;2022-12-07T11:26:30;5.80;99.90
24664;DHT22;12791;50.992;13.788;2022-12-07T11:29:18;5.50;99.90
24664;DHT22;12791;50.992;13.788;2022-12-07T11:31:57;5.70;99.90
24664;DHT22;12791;50.992;13.788;2022-12-07T11:34:32;5.50;99.90
24664;DHT22;12791;50.992;13.788;2022-12-07T11:37:02;5.80;99.90
24664;DHT22;12791;50.992;13.788;2022-12-07T11:39:34;5.80;99.90
24664;DHT22;12791;50.992;13.788;2022-12-07T11:42:05;5.90;99.90
24664;DHT22;12791;50.992;13.788;2022-12-07T11:44:38;5.80;99.90
24664;DHT22;12791;50.992;13.788;2022-12-07T11:47:08;5.50;99.90
24664;DHT22;12791;50.992;13.788;2022-12-07T11:49:42;5.80;99.90
24664;DHT22;12791;50.992;13.788;2022-12-07T11:52:17;5.60;99.90
24664;DHT22;12791;50.992;13.788;2022-12-07T11:54:46;5.40;99.90
24664;DHT22;12791;50.992;13.788;2022-12-07T11:57:18;5.50;99.90
24664;DHT22;12791;50.992;13.788;2022-12-07T11:59:50;5.40;99.90
24664;DHT22;12791;50.992;13.788;2022-12-07T12:02:22;5.50;99.90
24664;DHT22;12791;50.992;13.788;2022-12-07T12:04:55;5.70;99.90
24664;DHT22;12791;50.992;13.788;2022-12-07T12:07:26;5.40;99.90
24664;DHT22;12791;50.992;13.788;2022-12-07T12:09:55;5.60;99.90
24664;DHT22;12791;50.992;13.788;2022-12-07T12:12:43;5.30;99.90
24664;DHT22;12791;50.992;13.788;2022-12-07T12:15:27;5.70;99.90
24664;DHT22;12791;50.992;13.788;2022-12-07T12:21:02;5.50;99.90
24664;DHT22;12791;50.992;13.788;2022-12-07T12:23:37;5.60;99.90
24664;DHT22;12791;50.992;13.788;2022-12-07T12:26:06;5.70;99.90
24664;DHT22;12791;50.992;13.788;2022-12-07T12:28:40;5.40;99.90
24664;DHT22;12791;50.992;13.788;2022-12-07T12:31:11;5.50;99.90
24664;DHT22;12791;50.992;13.788;2022-12-07T12:33:43;5.60;99.90
24664;DHT22;12791;50.992;13.788;2022-12-07T12:36:25;5.90;99.90
24664;DHT22;12791;50.992;13.788;2022-12-07T12:39:09;5.50;99.90
24664;DHT22;12791;50.992;13.788;2022-12-07T12:41:56;5.50;99.90
24664;DHT22;12791;50.992;13.788;2022-12-07T12:47:43;5.20;99.90
24664;DHT22;12791;50.992;13.788;2022-12-07T12:50:20;5.10;99.90
24664;DHT22;12791;50.992;13.788;2022-12-07T12:53:17;5.10;99.90
24664;DHT22;12791;50.992;13.788;2022-12-07T12:56:11;4.90;99.90
24664;DHT22;12791;50.992;13.788;2022-12-07T12:58:43;5.10;99.90
24664;DHT22;12791;50.992;13.788;2022-12-07T13:01:44;5.00;99.90
24664;DHT22;12791;50.992;13.788;2022-12-07T13:04:34;4.90;99.90
24664;DHT22;12791;50.992;13.788;2022-12-07T13:07:04;4.80;99.90
24664;DHT22;12791;50.992;13.788;2022-12-07T13:09:34;4.60;99.90
24664;DHT22;12791;50.992;13.788;2022-12-07T13:12:04;4.70;99.90
24664;DHT22;12791;50.992;13.788;2022-12-07T13:14:53;4.80;99.90
24664;DHT22;12791;50.992;13.788;2022-12-07T13:20:49;4.80;99.90
24664;DHT22;12791;50.992;13.788;2022-12-07T13:23:29;4.90;99.90
24664;DHT22;12791;50.992;13.788;2022-12-07T13:26:06;4.70;99.90
24664;DHT22;12791;50.992;13.788;2022-12-07T13:28:37;4.70;99.90
24664;DHT22;12791;50.992;13.788;2022-12-07T13:31:16;5.00;99.90
24664;DHT22;12791;50.992;13.788;2022-12-07T13:33:47;5.10;99.90
24664;DHT22;12791;50.992;13.788;2022-12-07T13:36:19;4.80;99.90
24664;DHT22;12791;50.992;13.788;2022-12-07T13:38:52;4.90;99.90
24664;DHT22;12791;50.992;13.788;2022-12-07T13:41:22;4.90;99.90
24664;DHT22;12791;50.992;13.788;2022-12-07T13:43:52;4.90;99.90
24664;DHT22;12791;50.992;13.788;2022-12-07T13:46:25;4.80;99.90
24664;DHT22;12791;50.992;13.788;2022-12-07T13:48:53;4.80;99.90
24664;DHT22;12791;50.992;13.788;2022-12-07T13:51:23;5.00;99.90
24664;DHT22;12791;50.992;13.788;2022-12-07T13:53:53;4.90;99.90
24664;DHT22;12791;50.992;13.788;2022-12-07T13:56:27;4.80;99.90
24664;DHT22;12791;50.992;13.788;2022-12-07T13:58:55;4.80;99.90
24664;DHT22;12791;50.992;13.788;2022-12-07T14:01:21;4.70;99.90
24664;DHT22;12791;50.992;13.788;2022-12-07T14:03:48;4.70;99.90
24664;DHT22;12791;50.992;13.788;2022-12-07T14:06:25;4.40;99.90
24664;DHT22;12791;50.992;13.788;2022-12-07T14:09:14;4.60;99.90
24664;DHT22;12791;50.992;13.788;2022-12-07T14:11:45;4.20;99.90
24664;DHT22;12791;50.992;13.788;2022-12-07T14:14:15;4.40;99.90
24664;DHT22;12791;50.992;13.788;2022-12-07T14:16:43;4.20;99.90
24664;DHT22;12791;50.992;13.788;2022-12-07T14:22:20;4.40;99.90
24664;DHT22;12791;50.992;13.788;2022-12-07T14:24:47;4.40;99.90
24664;DHT22;12791;50.992;13.788;2022-12-07T14:27:19;4.60;99.90
24664;DHT22;12791;50.992;13.788;2022-12-07T14:29:47;4.40;99.90
24664;DHT22;12791;50.992;13.788;2022-12-07T14:32:25;4.60;99.90
24664;DHT22;12791;50.992;13.788;2022-12-07T14:34:59;4.70;99.90
24664;DHT22;12791;50.992;13.788;2022-12-07T14:37:27;4.70;99.90
24664;DHT22;12791;50.992;13.788;2022-12-07T14:39:55;4.90;99.90
24664;DHT22;12791;50.992;13.788;2022-12-07T14:42:27;5.00;99.90
24664;DHT22;12791;50.992;13.788;2022-12-07T14:44:54;4.70;99.90
24664;DHT22;12791;50.992;13.788;2022-12-07T14:47:21;4.80;99.90
24664;DHT22;12791;50.992;13.788;2022-12-07T14:49:48;4.90;99.90
24664;DHT22;12791;50.992;13.788;2022-12-07T14:52:17;5.10;99.90
24664;DHT22;12791;50.992;13.788;2022-12-07T14:54:45;5.00;99.90
24664;DHT22;12791;50.992;13.788;2022-12-07T14:57:12;4.90;99.90
24664;DHT22;12791;50.992;13.788;2022-12-07T14:59:40;4.60;99.90
24664;DHT22;12791;50.992;13.788;2022-12-07T15:02:09;5.30;99.90
24664;DHT22;12791;50.992;13.788;2022-12-07T15:04:36;4.80;99.90
24664;DHT22;12791;50.992;13.788;2022-12-07T15:07:04;5.10;99.90
24664;DHT22;12791;50.992;13.788;2022-12-07T15:09:31;5.00;99.90
24664;DHT22;12791;50.992;13.788;2022-12-07T15:11:58;5.20;99.90
24664;DHT22;12791;50.992;13.788;2022-12-07T15:14:25;5.10;99.90
24664;DHT22;12791;50.992;13.788;2022-12-07T15:16:53;5.20;99.90
24664;DHT22;12791;50.992;13.788;2022-12-07T15:19:23;5.10;99.90
24664;DHT22;12791;50.992;13.788;2022-12-07T15:21:51;5.00;99.90
24664;DHT22;12791;50.992;13.788;2022-12-07T15:24:19;5.00;99.90
24664;DHT22;12791;50.992;13.788;2022-12-07T15:26:46;5.40;99.90
24664;DHT22;12791;50.992;13.788;2022-12-07T15:29:13;5.30;99.90
24664;DHT22;12791;50.992;13.788;2022-12-07T15:31:41;5.30;99.90
24664;DHT22;12791;50.992;13.788;2022-12-07T15:34:10;5.00;99.90
24664;DHT22;12791;50.992;13.788;2022-12-07T15:36:36;5.20;99.90
24664;DHT22;12791;50.992;13.788;2022-12-07T15:39:03;5.20;99.90
24664;DHT22;12791;50.992;13.788;2022-12-07T15:41:30;4.90;99.90
24664;DHT22;12791;50.992;13.788;2022-12-07T15:43:57;5.10;99.90
24664;DHT22;12791;50.992;13.788;2022-12-07T15:46:41;5.00;99.90
24664;DHT22;12791;50.992;13.788;2022-12-07T15:49:12;4.90;99.90
24664;DHT22;12791;50.992;13.788;2022-12-07T15:51:40;5.00;99.90
24664;DHT22;12791;50.992;13.788;2022-12-07T15:54:07;4.70;99.90
24664;DHT22;12791;50.992;13.788;2022-12-07T15:56:33;4.90;99.90
24664;DHT22;12791;50.992;13.788;2022-12-07T15:59:00;4.90;99.90
24664;DHT22;12791;50.992;13.788;2022-12-07T16:01:27;4.80;99.90
24664;DHT22;12791;50.992;13.788;2022-12-07T16:03:54;4.90;99.90
24664;DHT22;12791;50.992;13.788;2022-12-07T16:06:22;5.10;99.90
24664;DHT22;12791;50.992;13.788;2022-12-07T16:08:48;4.90;99.90
24664;DHT22;12791;50.992;13.788;2022-12-07T16:11:15;5.10;99.90
24664;DHT22;12791;50.992;13.788;2022-12-07T16:13:42;5.30;99.90
24664;DHT22;12791;50.992;13.788;2022-12-07T16:16:12;5.10;99.90
24664;DHT22;12791;50.992;13.788;2022-12-07T16:18:39;5.20;99.90
24664;DHT22;12791;50.992;13.788;2022-12-07T16:21:06;5.30;99.90
24664;DHT22;12791;50.992;13.788;2022-12-07T16:23:34;5.20;99.90
24664;DHT22;12791;50.992;13.788;2022-12-07T16:26:06;5.00;99.90
24664;DHT22;12791;50.992;13.788;2022-12-07T16:28:33;5.10;99.90
24664;DHT22;12791;50.992;13.788;2022-12-07T16:31:02;5.00;99.90
24664;DHT22;12791;50.992;13.788;2022-12-07T16:33:29;5.10;99.90
24664;DHT22;12791;50.992;13.788;2022-12-07T16:35:55;5.20;99.90
24664;DHT22;12791;50.992;13.788;2022-12-07T16:38:22;5.00;99.90
24664;DHT22;12791;50.992;13.788;2022-12-07T16:40:50;5.10;99.90
24664;DHT22;12791;50.992;13.788;2022-12-07T16:43:17;5.00;99.90
24664;DHT22;12791;50.992;13.788;2022-12-07T16:45:45;4.90;99.90
24664;DHT22;12791;50.992;13.788;2022-12-07T16:48:12;5.00;99.90
24664;DHT22;12791;50.992;13.788;2022-12-07T16:50:39;4.90;99.90
24664;DHT22;12791;50.992;13.788;2022-12-07T16:53:07;5.10;99.90
24664;DHT22;12791;50.992;13.788;2022-12-07T16:55:35;5.10;99.90
24664;DHT22;12791;50.992;13.788;2022-12-07T16:58:04;5.10;99.90
24664;DHT22;12791;50.992;13.788;2022-12-07T17:00:31;5.20;99.90
24664;DHT22;12791;50.992;13.788;2022-12-07T17:02:58;5.20;99.90
24664;DHT22;12791;50.992;13.788;2022-12-07T17:05:25;5.00;99.90
24664;DHT22;12791;50.992;13.788;2022-12-07T17:07:53;4.90;99.90
24664;DHT22;12791;50.992;13.788;2022-12-07T17:10:20;5.00;99.90
24664;DHT22;12791;50.992;13.788;2022-12-07T17:12:47;5.20;99.90
24664;DHT22;12791;50.992;13.788;2022-12-07T17:15:15;5.10;99.90
24664;DHT22;12791;50.992;13.788;2022-12-07T17:17:48;5.00;99.90
24664;DHT22;12791;50.992;13.788;2022-12-07T17:20:17;5.20;99.90
24664;DHT22;12791;50.992;13.788;2022-12-07T17:22:45;5.00;99.90
24664;DHT22;12791;50.992;13.788;2022-12-07T17:25:12;5.10;99.90
24664;DHT22;12791;50.992;13.788;2022-12-07T17:27:39;5.00;99.90
24664;DHT22;12791;50.992;13.788;2022-12-07T17:30:07;5.00;99.90
24664;DHT22;12791;50.992;13.788;2022-12-07T17:32:35;5.20;99.90
24664;DHT22;12791;50.992;13.788;2022-12-07T17:35:03;5.20;99.90
24664;DHT22;12791;50.992;13.788;2022-12-07T17:37:30;5.20;99.90
24664;DHT22;12791;50.992;13.788;2022-12-07T17:39:57;5.10;99.90
24664;DHT22;12791;50.992;13.788;2022-12-07T17:42:24;4.90;99.90
24664;DHT22;12791;50.992;13.788;2022-12-07T17:45:06;5.00;99.90
24664;DHT22;12791;50.992;13.788;2022-12-07T17:47:35;5.10;99.90
24664;DHT22;12791;50.992;13.788;2022-12-07T17:50:03;5.20;99.90
24664;DHT22;12791;50.992;13.788;2022-12-07T17:52:30;5.00;99.90
24664;DHT22;12791;50.992;13.788;2022-12-07T17:55:14;5.10;99.90
24664;DHT22;12791;50.992;13.788;2022-12-07T17:57:41;5.00;99.90
24664;DHT22;12791;50.992;13.788;2022-12-07T18:00:09;4.80;99.90
24664;DHT22;12791;50.992;13.788;2022-12-07T18:02:38;5.00;99.90
24664;DHT22;12791;50.992;13.788;2022-12-07T18:05:05;4.80;99.90
24664;DHT22;12791;50.992;13.788;2022-12-07T18:07:32;5.10;99.90
24664;DHT22;12791;50.992;13.788;2022-12-07T18:09:59;5.10;99.90
24664;DHT22;12791;50.992;13.788;2022-12-07T18:12:26;4.90;99.90
24664;DHT22;12791;50.992;13.788;2022-12-07T18:14:52;5.00;99.90
24664;DHT22;12791;50.992;13.788;2022-12-07T18:17:19;5.00;99.90
24664;DHT22;12791;50.992;13.788;2022-12-07T18:19:47;5.00;99.90
24664;DHT22;12791;50.992;13.788;2022-12-07T18:22:14;5.20;99.90
24664;DHT22;12791;50.992;13.788;2022-12-07T18:24:41;4.90;99.90
24664;DHT22;12791;50.992;13.788;2022-12-07T18:27:08;5.00;99.90
24664;DHT22;12791;50.992;13.788;2022-12-07T18:29:35;5.00;99.90
24664;DHT22;12791;50.992;13.788;2022-12-07T18:32:02;4.90;99.90
24664;DHT22;12791;50.992;13.788;2022-12-07T18:34:29;4.90;99.90
24664;DHT22;12791;50.992;13.788;2022-12-07T18:36:57;4.90;99.90
24664;DHT22;12791;50.992;13.788;2022-12-07T18:39:24;4.80;99.90
24664;DHT22;12791;50.992;13.788;2022-12-07T18:41:51;4.70;99.90
24664;DHT22;12791;50.992;13.788;2022-12-07T18:44:18;5.00;99.90
24664;DHT22;12791;50.992;13.788;2022-12-07T18:46:44;4.80;99.90
24664;DHT22;12791;50.992;13.788;2022-12-07T18:49:12;4.80;99.90
24664;DHT22;12791;50.992;13.788;2022-12-07T18:51:39;4.90;99.90
24664;DHT22;12791;50.992;13.788;2022-12-07T18:54:08;4.90;99.90
24664;DHT22;12791;50.992;13.788;2022-12-07T18:56:35;4.80;99.90
24664;DHT22;12791;50.992;13.788;2022-12-07T18:59:03;4.90;99.90
24664;DHT22;12791;50.992;13.788;2022-12-07T19:01:50;5.00;99.90
24664;DHT22;12791;50.992;13.788;2022-12-07T19:04:17;4.80;99.90
24664;DHT22;12791;50.992;13.788;2022-12-07T19:06:46;5.00;99.90
24664;DHT22;12791;50.992;13.788;2022-12-07T19:09:15;5.00;99.90
24664;DHT22;12791;50.992;13.788;2022-12-07T19:11:42;4.80;99.90
24664;DHT22;12791;50.992;13.788;2022-12-07T19:14:16;4.80;99.90
24664;DHT22;12791;50.992;13.788;2022-12-07T19:16:43;4.90;99.90
24664;DHT22;12791;50.992;13.788;2022-12-07T19:19:10;4.90;99.90
24664;DHT22;12791;50.992;13.788;2022-12-07T19:21:36;4.70;99.90
24664;DHT22;12791;50.992;13.788;2022-12-07T19:24:04;4.90;99.90
24664;DHT22;12791;50.992;13.788;2022-12-07T19:26:33;4.80;99.90
24664;DHT22;12791;50.992;13.788;2022-12-07T19:29:00;4.80;99.90
24664;DHT22;12791;50.992;13.788;2022-12-07T19:31:26;4.50;99.90
24664;DHT22;12791;50.992;13.788;2022-12-07T19:33:53;4.80;99.90
24664;DHT22;12791;50.992;13.788;2022-12-07T19:36:20;4.60;99.90
24664;DHT22;12791;50.992;13.788;2022-12-07T19:38:48;4.60;99.90
24664;DHT22;12791;50.992;13.788;2022-12-07T19:41:15;4.60;99.90
24664;DHT22;12791;50.992;13.788;2022-12-07T19:43:58;4.60;99.90
24664;DHT22;12791;50.992;13.788;2022-12-07T19:46:25;4.80;99.90
24664;DHT22;12791;50.992;13.788;2022-12-07T19:48:52;4.60;99.90
24664;DHT22;12791;50.992;13.788;2022-12-07T19:51:20;4.60;99.90
24664;DHT22;12791;50.992;13.788;2022-12-07T19:53:46;4.80;99.90
24664;DHT22;12791;50.992;13.788;2022-12-07T19:56:14;4.60;99.90
24664;DHT22;12791;50.992;13.788;2022-12-07T19:58:41;4.60;99.90
24664;DHT22;12791;50.992;13.788;2022-12-07T20:01:09;4.70;99.90
24664;DHT22;12791;50.992;13.788;2022-12-07T20:03:36;4.70;99.90